createdAt,value
2023-03-26T00:00:38.218Z,43.36
2023-03-26T00:03:10.223Z,43.46
2023-03-26T00:05:40.973Z,43.49
2023-03-26T00:08:12.182Z,43.47
2023-03-26T00:10:44.385Z,43.25
2023-03-26T00:13:15.231Z,43.39
2023-03-26T00:15:46.317Z,43.38
2023-03-26T00:18:17.249Z,43.40
2023-03-26T00:20:48.055Z,43.49
2023-03-26T00:23:18.997Z,43.44
2023-03-26T00:25:50.958Z,43.49
2023-03-26T00:28:22.718Z,43.41
2023-03-26T00:31:01.145Z,43.37
2023-03-26T00:33:32.614Z,43.61
2023-03-26T00:36:04.792Z,43.40
2023-03-26T00:38:38.888Z,43.47
2023-03-26T00:41:17.484Z,43.50
2023-03-26T00:43:48.799Z,43.54
2023-03-26T00:46:20.381Z,43.46
2023-03-26T00:48:51.746Z,43.50
2023-03-26T00:51:23.815Z,43.63
2023-03-26T00:53:54.988Z,43.60
2023-03-26T00:56:26.427Z,43.50
2023-03-26T00:58:57.849Z,43.46
2023-03-26T01:01:30.738Z,43.46
2023-03-26T01:04:15.887Z,43.48
2023-03-26T01:06:46.960Z,43.71
2023-03-26T01:09:20.278Z,43.75
2023-03-26T01:11:51.682Z,43.79
2023-03-26T01:14:26.936Z,43.70
2023-03-26T01:16:59.261Z,43.71
2023-03-26T01:19:38.081Z,43.70
2023-03-26T01:22:11.355Z,43.77
2023-03-26T01:24:43.770Z,43.82
2023-03-26T01:27:25.785Z,43.66
2023-03-26T01:30:01.609Z,43.73
2023-03-26T01:32:45.003Z,43.61
2023-03-26T01:35:27.489Z,43.60
2023-03-26T01:38:11.621Z,43.47
2023-03-26T01:40:49.630Z,43.61
2023-03-26T01:43:33.716Z,43.50
2023-03-26T01:46:08.139Z,43.65
2023-03-26T01:48:41.733Z,43.92
2023-03-26T01:51:11.716Z,43.83
2023-03-26T01:53:46.064Z,43.85
2023-03-26T01:56:23.935Z,43.69
2023-03-26T01:59:07.860Z,43.82
2023-03-26T02:01:46.500Z,43.95
2023-03-26T02:04:26.478Z,44.01
2023-03-26T02:07:05.935Z,43.76
2023-03-26T02:09:45.969Z,43.98
2023-03-26T02:12:17.646Z,43.92
2023-03-26T02:14:48.668Z,43.86
2023-03-26T02:17:24.356Z,43.88
2023-03-26T02:19:55.195Z,43.67
2023-03-26T02:22:30.099Z,43.77
2023-03-26T02:25:01.137Z,43.86
2023-03-26T02:27:31.888Z,43.90
2023-03-26T02:30:03.241Z,43.73
2023-03-26T02:32:35.172Z,43.82
2023-03-26T02:35:06.863Z,43.80
2023-03-26T02:37:38.412Z,43.95
2023-03-26T02:40:11.999Z,44.03
2023-03-26T02:42:41.334Z,43.98
2023-03-26T02:45:12.393Z,44.16
2023-03-26T02:47:43.435Z,44.29
2023-03-26T02:50:14.610Z,44.34
2023-03-26T02:52:49.132Z,44.06
2023-03-26T02:55:19.943Z,43.64
2023-03-26T02:57:50.669Z,43.67
2023-03-26T03:00:22.818Z,43.63
2023-03-26T03:02:54.380Z,43.75
2023-03-26T03:05:26.762Z,43.83
2023-03-26T03:07:58.103Z,43.91
2023-03-26T03:10:32.945Z,43.97
2023-03-26T03:13:05.904Z,44.12
2023-03-26T03:15:36.677Z,44.20
2023-03-26T03:18:08.186Z,44.22
2023-03-26T03:20:38.863Z,44.15
2023-03-26T03:23:09.493Z,44.22
2023-03-26T03:25:41.098Z,44.13
2023-03-26T03:28:11.918Z,44.15
2023-03-26T03:30:42.996Z,44.17
2023-03-26T03:33:13.839Z,44.14
2023-03-26T03:35:45.986Z,44.08
2023-03-26T03:38:17.294Z,44.10
2023-03-26T03:40:48.004Z,44.21
2023-03-26T03:43:18.880Z,44.17
2023-03-26T03:45:49.525Z,44.22
2023-03-26T03:48:20.601Z,44.15
2023-03-26T03:50:51.297Z,44.18
2023-03-26T03:53:26.051Z,44.30
2023-03-26T03:55:57.980Z,44.34
2023-03-26T03:58:31.141Z,44.45
2023-03-26T04:01:04.495Z,44.54
2023-03-26T04:03:38.972Z,44.58
2023-03-26T04:06:11.565Z,44.59
2023-03-26T04:08:42.197Z,44.66
2023-03-26T04:11:12.795Z,44.63
2023-03-26T04:13:43.769Z,44.52
2023-03-26T04:16:14.651Z,44.45
2023-03-26T04:18:46.490Z,44.47
2023-03-26T04:21:17.343Z,44.41
2023-03-26T04:23:48.448Z,44.44
2023-03-26T04:26:21.076Z,44.51
2023-03-26T04:28:54.889Z,44.48
2023-03-26T04:31:30.496Z,44.54
2023-03-26T04:34:06.887Z,44.58
2023-03-26T04:36:37.571Z,44.70
2023-03-26T04:39:08.267Z,44.53
2023-03-26T04:41:39.285Z,44.45
2023-03-26T04:44:09.916Z,44.47
2023-03-26T04:46:43.780Z,44.54
2023-03-26T04:49:14.969Z,44.48
2023-03-26T04:51:46.876Z,44.58
2023-03-26T04:54:21.726Z,44.51
2023-03-26T04:56:58.513Z,44.49
2023-03-26T04:59:35.100Z,44.59
2023-03-26T05:02:08.446Z,44.48
2023-03-26T05:04:40.854Z,44.64
2023-03-26T05:07:16.189Z,44.61
2023-03-26T05:09:46.900Z,44.65
2023-03-26T05:12:18.073Z,44.50
2023-03-26T05:14:48.768Z,44.53
2023-03-26T05:17:21.445Z,44.55
2023-03-26T05:19:52.806Z,44.55
2023-03-26T05:22:23.497Z,44.57
2023-03-26T05:24:54.292Z,44.55
2023-03-26T05:27:24.931Z,44.55
2023-03-26T05:30:01.209Z,44.53
2023-03-26T05:32:33.303Z,44.56
2023-03-26T05:35:04.491Z,44.58
2023-03-26T05:37:35.734Z,44.56
2023-03-26T05:40:12.143Z,44.54
2023-03-26T05:42:43.285Z,44.49
2023-03-26T05:45:16.282Z,44.52
2023-03-26T05:47:47.888Z,44.50
2023-03-26T05:50:18.776Z,44.50
2023-03-26T05:52:49.594Z,44.54
2023-03-26T05:55:22.189Z,44.53
2023-03-26T05:57:52.889Z,44.52
2023-03-26T06:00:24.382Z,44.46
2023-03-26T06:02:56.819Z,44.48
2023-03-26T06:05:32.707Z,44.48
2023-03-26T06:08:03.858Z,44.51
2023-03-26T06:10:34.712Z,44.47
2023-03-26T06:13:05.433Z,44.58
2023-03-26T06:15:36.480Z,44.60
2023-03-26T06:18:07.470Z,44.68
2023-03-26T06:20:38.442Z,44.68
2023-03-26T06:23:09.215Z,44.81
2023-03-26T06:25:41.412Z,44.80
2023-03-26T06:28:12.389Z,44.78
2023-03-26T06:30:43.563Z,44.93
2023-03-26T06:33:14.405Z,44.86
2023-03-26T06:35:45.971Z,44.83
2023-03-26T06:38:16.833Z,44.82
2023-03-26T06:40:47.748Z,44.88
2023-03-26T06:43:18.605Z,44.85
2023-03-26T06:45:53.689Z,44.80
2023-03-26T06:48:24.373Z,44.82
2023-03-26T06:50:55.502Z,44.77
2023-03-26T06:53:26.508Z,44.78
2023-03-26T06:55:57.288Z,44.63
2023-03-26T06:58:28.233Z,44.69
2023-03-26T07:01:01.318Z,44.40
2023-03-26T07:03:32.087Z,44.02
2023-03-26T07:06:02.805Z,43.86
2023-03-26T07:08:33.745Z,43.74
2023-03-26T07:11:04.465Z,43.45
2023-03-26T07:13:36.706Z,43.20
2023-03-26T07:16:08.969Z,43.23
2023-03-26T07:18:39.671Z,43.00
2023-03-26T07:21:13.002Z,42.86
2023-03-26T07:23:44.843Z,42.64
2023-03-26T07:26:34.464Z,42.49
2023-03-26T07:29:14.873Z,42.55
2023-03-26T07:31:52.959Z,42.42
2023-03-26T07:34:42.828Z,42.28
2023-03-26T07:37:28.000Z,42.05
2023-03-26T07:40:04.066Z,41.96
2023-03-26T07:42:51.723Z,42.06
2023-03-26T07:45:28.325Z,42.11
2023-03-26T07:48:00.431Z,42.23
2023-03-26T07:50:31.669Z,42.28
2023-03-26T07:53:03.320Z,42.40
2023-03-26T07:55:35.322Z,42.56
2023-03-26T07:58:21.382Z,42.64
2023-03-26T08:00:58.154Z,42.59
2023-03-26T08:04:23.453Z,42.76
2023-03-26T08:07:01.192Z,42.60
2023-03-26T08:09:38.628Z,42.41
2023-03-26T08:12:19.697Z,42.57
2023-03-26T08:15:02.008Z,42.50
2023-03-26T08:17:38.206Z,42.37
2023-03-26T08:20:22.314Z,42.37
2023-03-26T08:23:02.297Z,42.29
2023-03-26T08:25:38.179Z,42.12
2023-03-26T08:28:20.892Z,41.97
2023-03-26T08:30:55.118Z,42.04
2023-03-26T08:33:29.763Z,42.01
2023-03-26T08:36:00.741Z,41.93
2023-03-26T08:38:31.759Z,41.91
2023-03-26T08:41:28.954Z,41.89
2023-03-26T08:44:42.138Z,41.92
2023-03-26T08:47:42.332Z,42.00
2023-03-26T08:50:46.813Z,41.88
2023-03-26T08:53:47.632Z,41.78
2023-03-26T08:56:27.778Z,41.74
2023-03-26T08:59:19.888Z,41.68
2023-03-26T09:02:22.581Z,41.73
2023-03-26T09:05:39.712Z,41.71
2023-03-26T09:08:37.001Z,41.62
2023-03-26T09:11:56.179Z,41.70
2023-03-26T09:14:52.231Z,41.44
2023-03-26T09:18:07.894Z,41.44
2023-03-26T09:20:56.398Z,41.52
2023-03-26T09:24:07.084Z,41.47
2023-03-26T09:26:51.835Z,41.11
2023-03-26T09:29:53.674Z,40.26
2023-03-26T09:32:59.044Z,40.17
2023-03-26T09:36:17.208Z,40.34
2023-03-26T09:38:52.877Z,40.28
2023-03-26T09:41:36.785Z,40.50
2023-03-26T09:44:50.812Z,40.10
2023-03-26T09:47:48.308Z,40.03
2023-03-26T09:50:31.047Z,40.02
2023-03-26T09:53:16.977Z,40.15
2023-03-26T09:56:04.735Z,40.09
2023-03-26T09:59:00.722Z,40.21
2023-03-26T10:01:40.666Z,40.49
2023-03-26T10:04:44.276Z,40.41
2023-03-26T10:07:32.410Z,40.40
2023-03-26T10:10:10.240Z,40.41
2023-03-26T10:12:44.577Z,40.95
2023-03-26T10:15:32.390Z,40.65
2023-03-26T10:18:27.314Z,40.61
2023-03-26T10:21:07.299Z,40.59
2023-03-26T10:24:02.752Z,40.51
2023-03-26T10:27:08.705Z,40.63
2023-03-26T10:30:21.703Z,40.95
2023-03-26T10:33:05.432Z,40.83
2023-03-26T10:35:49.317Z,40.76
2023-03-26T10:38:31.117Z,40.77
2023-03-26T10:41:14.144Z,40.64
2023-03-26T10:44:10.656Z,40.73
2023-03-26T10:47:06.973Z,40.94
2023-03-26T10:49:49.257Z,40.76
2023-03-26T10:52:23.339Z,40.87
2023-03-26T10:54:59.214Z,40.62
2023-03-26T10:57:44.675Z,40.67
2023-03-26T11:00:25.389Z,41.11
2023-03-26T11:03:16.745Z,40.79
2023-03-26T11:05:53.727Z,40.83
2023-03-26T11:08:32.886Z,40.66
2023-03-26T11:11:12.429Z,40.36
2023-03-26T11:13:53.883Z,40.75
2023-03-26T11:16:34.554Z,40.69
2023-03-26T11:19:12.960Z,40.46
2023-03-26T11:21:55.016Z,40.33
2023-03-26T11:25:05.629Z,40.32
2023-03-26T11:27:51.900Z,40.56
2023-03-26T11:30:39.326Z,39.82
2023-03-26T11:33:12.711Z,40.20
2023-03-26T11:35:45.117Z,39.85
2023-03-26T11:38:21.035Z,40.10
2023-03-26T11:40:56.601Z,40.57
2023-03-26T11:43:33.695Z,40.28
2023-03-26T11:46:05.892Z,40.45
2023-03-26T11:48:41.939Z,40.50
2023-03-26T11:51:18.980Z,40.33
2023-03-26T11:53:50.103Z,40.30
2023-03-26T11:56:28.743Z,40.72
2023-03-26T11:59:05.710Z,40.40
2023-03-26T12:01:50.707Z,40.56
2023-03-26T12:04:30.011Z,40.49
2023-03-26T12:07:17.137Z,40.64
2023-03-26T12:09:54.517Z,40.55
2023-03-26T12:12:28.303Z,40.45
2023-03-26T12:14:59.711Z,40.37
2023-03-26T12:17:34.100Z,40.65
2023-03-26T12:20:32.116Z,40.57
2023-03-26T12:23:06.620Z,40.61
2023-03-26T12:25:39.308Z,40.46
2023-03-26T12:28:20.395Z,40.38
2023-03-26T12:31:02.797Z,40.73
2023-03-26T12:33:35.480Z,40.74
2023-03-26T12:36:25.719Z,40.56
2023-03-26T12:39:16.928Z,40.50
2023-03-26T12:44:45.205Z,40.68
2023-03-26T12:44:58.848Z,40.33
2023-03-26T12:47:57.824Z,40.67
2023-03-26T12:50:33.968Z,40.59
2023-03-26T12:53:33.410Z,40.83
2023-03-26T12:56:13.430Z,40.55
2023-03-26T12:59:18.635Z,40.77
2023-03-26T13:02:02.285Z,40.71
2023-03-26T13:05:05.625Z,40.57
2023-03-26T13:07:52.969Z,40.59
2023-03-26T13:10:38.539Z,40.75
2023-03-26T13:13:23.500Z,40.49
2023-03-26T13:15:58.429Z,40.83
2023-03-26T13:18:43.607Z,40.68
2023-03-26T13:21:24.084Z,40.88
2023-03-26T13:24:02.489Z,41.02
2023-03-26T13:26:47.129Z,40.95
2023-03-26T13:29:27.206Z,40.87
2023-03-26T13:32:09.704Z,41.09
2023-03-26T13:34:55.831Z,40.94
2023-03-26T13:37:33.166Z,40.98
2023-03-26T13:40:25.556Z,41.16
2023-03-26T13:43:13.728Z,41.24
2023-03-26T13:45:59.537Z,40.91
2023-03-26T13:48:35.369Z,41.17
2023-03-26T13:51:10.913Z,41.10
2023-03-26T13:53:47.263Z,41.08
2023-03-26T13:56:24.719Z,41.00
2023-03-26T13:59:03.704Z,41.07
2023-03-26T14:01:43.571Z,41.33
2023-03-26T14:04:21.626Z,41.27
2023-03-26T14:06:58.296Z,41.29
2023-03-26T14:09:35.632Z,41.18
2023-03-26T14:12:39.068Z,41.27
